Time;durP1;ratioP1;P1;durP2;ratioP2;P2;SDS_P1;SDS_P2;PMS_P1;PMS_P2;Temp;Humidity;BMP_temperature;BMP_pressure;BME280_temperature;BME280_humidity;BME280_pressure;Samples;Min_cycle;Max_cycle;Signal;HPM_P1;HPM_P2
2021/12/16 00:02:41;;;;;;;4.97;4.47;;;;;;;;;;5055172;28;20221;-65
2021/12/16 00:05:31;;;;;;;4.07;3.45;;;;;;;;;;5055059;28;20153;-65
2021/12/16 00:08:04;;;;;;;4.13;3.72;;;;;;;;;;5054982;28;20233;-66
2021/12/16 00:10:44;;;;;;;3.78;3.47;;;;;;;;;;5054961;28;20181;-66
2021/12/16 00:34:45;;;;;;;5.28;4.80;;;;;;;;;;5054393;28;20201;-66
2021/12/16 00:37:10;;;;;;;5.70;5.10;;;;;;;;;;5054354;28;20667;-66
2021/12/16 00:39:36;;;;;;;5.88;5.03;;;;;;;;;;5054334;28;20181;-65
2021/12/16 00:42:08;;;;;;;6.32;5.20;;;;;;;;;;5054138;28;20340;-66
2021/12/16 00:49:45;;;;;;;5.20;4.28;;;;;;;;;;5054186;28;20169;-67
2021/12/16 00:55:07;;;;;;;4.20;3.80;;;;;;;;;;5054383;28;20643;-66
2021/12/16 00:57:33;;;;;;;4.25;3.50;;;;;;;;;;5054141;28;20237;-66
2021/12/16 01:00:04;;;;;;;4.57;4.15;;;;;;;;;;5054218;28;20265;-66
2021/12/16 01:42:39;;;;;;;5.43;4.53;;;;;;;;;;5053136;28;20601;-66
2021/12/16 01:48:15;;;;;;;6.35;5.30;;;;;;;;;;5053694;28;20153;-65
2021/12/16 01:50:45;;;;;;;5.78;4.80;;;;;;;;;;5052866;28;20178;-66
2021/12/16 01:55:54;;;;;;;6.10;4.82;;;;;;;;;;5052926;28;20181;-65
2021/12/16 01:58:23;;;;;;;6.20;4.82;;;;;;;;;;5052973;28;20158;-65
2021/12/16 02:01:20;;;;;;;5.25;4.75;;;;;;;;;;5052960;28;20189;-67
2021/12/16 02:03:47;;;;;;;4.88;4.40;;;;;;;;;;5052581;28;20629;-65
2021/12/16 02:08:43;;;;;;;4.70;4.03;;;;;;;;;;5052976;28;20169;-65
2021/12/16 02:30:45;;;;;;;6.65;5.10;;;;;;;;;;5052616;28;20150;-65
2021/12/16 02:37:47;;;;;;;8.45;5.85;;;;;;;;;;5052628;28;20619;-65
2021/12/16 02:40:13;;;;;;;7.45;5.43;;;;;;;;;;5052204;28;20153;-65
2021/12/16 02:42:53;;;;;;;5.10;4.60;;;;;;;;;;5052002;28;20208;-65
2021/12/16 02:50:46;;;;;;;4.60;4.20;;;;;;;;;;5052603;28;20546;-65
2021/12/16 02:53:11;;;;;;;5.45;4.95;;;;;;;;;;5051919;28;20174;-66
2021/12/16 02:55:36;;;;;;;6.07;5.03;;;;;;;;;;5051984;28;20249;-65
2021/12/16 02:58:01;;;;;;;8.27;5.38;;;;;;;;;;5051894;28;20166;-65
2021/12/16 03:00:28;;;;;;;7.53;5.25;;;;;;;;;;5051916;28;20219;-66
2021/12/16 03:02:54;;;;;;;10.15;5.78;;;;;;;;;;5051839;28;20172;-66
2021/12/16 03:05:21;;;;;;;7.88;6.03;;;;;;;;;;5052049;28;20177;-66
2021/12/16 03:07:47;;;;;;;6.82;5.63;;;;;;;;;;5051817;28;20242;-66
2021/12/16 03:11:01;;;;;;;7.90;5.22;;;;;;;;;;5052197;28;20176;-65
2021/12/16 03:13:08;;;;;;;8.73;5.50;;;;;;;;;;5051957;28;20631;-66
2021/12/16 03:18:25;;;;;;;8.65;6.07;;;;;;;;;;5052141;28;20158;-65
2021/12/16 03:21:05;;;;;;;6.88;5.38;;;;;;;;;;5051947;28;20190;-65
2021/12/16 03:37:01;;;;;;;5.28;4.78;;;;;;;;;;5051910;28;20178;-67
2021/12/16 03:39:31;;;;;;;5.40;4.40;;;;;;;;;;5051885;28;20158;-67
2021/12/16 03:41:57;;;;;;;6.65;5.07;;;;;;;;;;5051675;28;20205;-67
2021/12/16 03:44:32;;;;;;;8.95;6.60;;;;;;;;;;5051471;28;20200;-67
2021/12/16 03:46:57;;;;;;;7.13;5.45;;;;;;;;;;5051697;28;20150;-66
2021/12/16 03:49:24;;;;;;;6.45;5.30;;;;;;;;;;5051406;28;20162;-66
2021/12/16 03:51:52;;;;;;;7.18;5.22;;;;;;;;;;5051582;28;20165;-66
2021/12/16 03:54:17;;;;;;;5.60;4.97;;;;;;;;;;5051609;28;20181;-66
2021/12/16 03:56:43;;;;;;;8.23;5.60;;;;;;;;;;5052044;28;20178;-67
2021/12/16 03:59:09;;;;;;;7.32;5.65;;;;;;;;;;5055145;28;20170;-65
2021/12/16 04:01:35;;;;;;;6.07;5.43;;;;;;;;;;5055248;28;20204;-66
2021/12/16 04:04:00;;;;;;;14.60;6.78;;;;;;;;;;5055082;28;20256;-65
2021/12/16 04:06:27;;;;;;;14.40;6.03;;;;;;;;;;5054927;28;20164;-65
2021/12/16 04:08:54;;;;;;;10.35;6.38;;;;;;;;;;5054923;28;20178;-65
2021/12/16 04:11:23;;;;;;;8.93;5.85;;;;;;;;;;5054848;28;20173;-65
2021/12/16 04:13:59;;;;;;;7.85;6.35;;;;;;;;;;5054781;28;20174;-66
2021/12/16 04:16:30;;;;;;;8.20;6.25;;;;;;;;;;5055110;28;20193;-65
2021/12/16 04:18:56;;;;;;;7.43;6.18;;;;;;;;;;5054663;28;20729;-66
2021/12/16 04:21:25;;;;;;;7.35;6.50;;;;;;;;;;5054627;28;20276;-66
2021/12/16 04:23:50;;;;;;;7.68;5.88;;;;;;;;;;5054580;28;20174;-64
2021/12/16 04:26:16;;;;;;;7.60;5.30;;;;;;;;;;5054607;28;20172;-65
2021/12/16 04:28:42;;;;;;;7.53;5.72;;;;;;;;;;5054691;28;20162;-65
2021/12/16 04:31:08;;;;;;;7.60;5.45;;;;;;;;;;5054513;28;20223;-65
2021/12/16 04:33:36;;;;;;;7.45;5.28;;;;;;;;;;5054476;28;20198;-64
2021/12/16 04:36:01;;;;;;;5.68;4.88;;;;;;;;;;5054434;28;20197;-65
2021/12/16 04:38:26;;;;;;;8.00;4.97;;;;;;;;;;5054393;28;20169;-65
2021/12/16 04:40:52;;;;;;;7.28;5.35;;;;;;;;;;5054595;28;20200;-66
2021/12/16 04:43:21;;;;;;;5.63;4.88;;;;;;;;;;5054275;28;20174;-66
2021/12/16 04:45:47;;;;;;;6.20;5.03;;;;;;;;;;5052985;28;20634;-66
2021/12/16 04:48:12;;;;;;;6.15;4.88;;;;;;;;;;5054347;28;20162;-65
2021/12/16 04:50:38;;;;;;;5.60;5.00;;;;;;;;;;5054654;28;20181;-65
2021/12/16 04:53:03;;;;;;;6.47;4.68;;;;;;;;;;5054096;28;20170;-65
2021/12/16 04:55:28;;;;;;;6.10;5.22;;;;;;;;;;5054078;28;20257;-65
2021/12/16 04:57:54;;;;;;;6.13;4.85;;;;;;;;;;5054359;28;20166;-65
2021/12/16 05:00:21;;;;;;;6.32;4.80;;;;;;;;;;5054230;28;20170;-65
2021/12/16 05:02:47;;;;;;;7.82;5.60;;;;;;;;;;5054097;28;20221;-66
2021/12/16 05:05:12;;;;;;;8.48;6.70;;;;;;;;;;5053839;28;20208;-66
2021/12/16 05:07:40;;;;;;;6.63;5.35;;;;;;;;;;5053867;28;20213;-66
2021/12/16 05:10:11;;;;;;;7.93;6.60;;;;;;;;;;5053002;28;20178;-66
2021/12/16 05:12:38;;;;;;;8.57;6.55;;;;;;;;;;5054110;28;20205;-66
2021/12/16 05:15:06;;;;;;;9.10;5.22;;;;;;;;;;5053666;28;20687;-66
2021/12/16 05:17:41;;;;;;;6.28;4.70;;;;;;;;;;5053661;28;20603;-66
2021/12/16 05:20:10;;;;;;;6.82;5.10;;;;;;;;;;5053939;28;20173;-66
2021/12/16 05:25:24;;;;;;;5.70;4.90;;;;;;;;;;5053591;28;20183;-67
2021/12/16 05:27:50;;;;;;;6.82;5.68;;;;;;;;;;5053417;28;20701;-66
2021/12/16 05:30:15;;;;;;;7.97;4.97;;;;;;;;;;5053325;28;20205;-65
2021/12/16 05:32:45;;;;;;;10.32;5.60;;;;;;;;;;5053235;28;20213;-64
2021/12/16 05:35:11;;;;;;;11.85;6.07;;;;;;;;;;5053295;28;20154;-65
2021/12/16 05:37:36;;;;;;;7.25;5.38;;;;;;;;;;5053479;28;20174;-65
2021/12/16 05:40:02;;;;;;;7.18;5.22;;;;;;;;;;5053171;28;20182;-65
2021/12/16 05:42:27;;;;;;;7.45;5.88;;;;;;;;;;5053077;28;20201;-65
2021/12/16 05:44:53;;;;;;;7.95;5.47;;;;;;;;;;5053101;28;20217;-65
2021/12/16 05:47:18;;;;;;;7.28;5.57;;;;;;;;;;5053096;28;20262;-64
2021/12/16 05:49:43;;;;;;;6.85;5.45;;;;;;;;;;5052968;28;20170;-64
2021/12/16 05:52:09;;;;;;;10.02;7.32;;;;;;;;;;5052897;28;20189;-65
2021/12/16 05:54:34;;;;;;;11.40;6.63;;;;;;;;;;5052852;28;20217;-65
2021/12/16 05:56:59;;;;;;;11.57;8.00;;;;;;;;;;5052936;28;20173;-65
2021/12/16 05:59:24;;;;;;;23.80;13.95;;;;;;;;;;5052873;28;20174;-65
2021/12/16 06:01:50;;;;;;;11.20;7.85;;;;;;;;;;5052905;28;20193;-65
2021/12/16 06:04:15;;;;;;;7.65;6.32;;;;;;;;;;5052742;28;20165;-65
2021/12/16 06:06:41;;;;;;;11.27;7.38;;;;;;;;;;5052617;28;20193;-66
2021/12/16 06:09:08;;;;;;;8.18;6.78;;;;;;;;;;5052700;28;20173;-65
2021/12/16 06:11:33;;;;;;;7.22;5.97;;;;;;;;;;5052663;28;20177;-65
2021/12/16 06:14:17;;;;;;;7.93;5.38;;;;;;;;;;5052508;28;20185;-65
2021/12/16 06:27:41;;;;;;;11.30;7.88;;;;;;;;;;5052934;28;20160;-65
2021/12/16 06:30:10;;;;;;;11.48;7.25;;;;;;;;;;5052211;28;20231;-65
2021/12/16 06:32:36;;;;;;;8.00;6.53;;;;;;;;;;5052106;28;20173;-65
2021/12/16 06:35:02;;;;;;;16.50;11.07;;;;;;;;;;5052138;28;20255;-65
2021/12/16 06:37:27;;;;;;;21.17;13.90;;;;;;;;;;5052173;28;20197;-65
2021/12/16 06:39:52;;;;;;;18.00;12.18;;;;;;;;;;5052124;28;20556;-65
2021/12/16 06:42:18;;;;;;;13.38;8.50;;;;;;;;;;5052226;28;20204;-66
2021/12/16 06:44:50;;;;;;;18.33;11.75;;;;;;;;;;5052361;28;20591;-65
2021/12/16 06:47:21;;;;;;;15.70;11.30;;;;;;;;;;5052292;28;20158;-65
2021/12/16 06:49:49;;;;;;;17.58;10.75;;;;;;;;;;5052193;28;20181;-66
2021/12/16 06:52:17;;;;;;;14.00;9.50;;;;;;;;;;5051936;28;20205;-66
2021/12/16 06:57:25;;;;;;;15.23;11.20;;;;;;;;;;5051974;28;20161;-65
2021/12/16 07:00:07;;;;;;;24.50;15.73;;;;;;;;;;5052204;28;20170;-65
2021/12/16 07:05:08;;;;;;;11.85;7.47;;;;;;;;;;5052298;28;20151;-65
2021/12/16 07:07:34;;;;;;;10.25;7.88;;;;;;;;;;5051838;28;20196;-64
2021/12/16 07:09:59;;;;;;;14.02;11.10;;;;;;;;;;5051781;28;20173;-65
2021/12/16 07:12:35;;;;;;;15.77;9.95;;;;;;;;;;5051750;28;20174;-65
2021/12/16 07:15:02;;;;;;;12.27;9.00;;;;;;;;;;5051687;28;20197;-65
2021/12/16 07:17:27;;;;;;;10.65;8.43;;;;;;;;;;5052170;28;20165;-65
2021/12/16 07:19:53;;;;;;;10.30;8.13;;;;;;;;;;5051771;28;20566;-65
2021/12/16 07:22:18;;;;;;;13.93;9.57;;;;;;;;;;5051664;28;20259;-65
2021/12/16 07:24:44;;;;;;;18.65;10.75;;;;;;;;;;5051651;28;20170;-65
2021/12/16 07:27:09;;;;;;;16.00;11.48;;;;;;;;;;5051939;28;20178;-66
2021/12/16 07:29:34;;;;;;;10.20;7.43;;;;;;;;;;5050347;28;20666;-65
2021/12/16 07:32:01;;;;;;;5.72;4.75;;;;;;;;;;5052853;28;20190;-66
2021/12/16 07:34:27;;;;;;;7.40;5.38;;;;;;;;;;5055534;28;20225;-66
2021/12/16 07:36:52;;;;;;;7.72;5.63;;;;;;;;;;5055742;28;20571;-65
2021/12/16 07:39:19;;;;;;;8.07;5.85;;;;;;;;;;5055548;28;20635;-66
2021/12/16 07:41:47;;;;;;;8.85;6.18;;;;;;;;;;5056414;28;20557;-66
2021/12/16 07:44:13;;;;;;;6.70;5.72;;;;;;;;;;5055346;28;20170;-64
2021/12/16 07:46:47;;;;;;;9.48;6.57;;;;;;;;;;5055367;28;20542;-64
2021/12/16 07:49:23;;;;;;;8.75;6.25;;;;;;;;;;5055286;28;20174;-65
2021/12/16 07:51:49;;;;;;;7.43;5.53;;;;;;;;;;5055319;28;20157;-65
2021/12/16 07:54:15;;;;;;;6.85;5.97;;;;;;;;;;5053961;28;20273;-65
2021/12/16 07:56:40;;;;;;;7.50;6.20;;;;;;;;;;5055161;28;20188;-65
2021/12/16 07:59:07;;;;;;;7.85;5.80;;;;;;;;;;5055164;28;20170;-66
2021/12/16 08:01:33;;;;;;;6.15;4.55;;;;;;;;;;5055280;28;20197;-66
2021/12/16 08:03:58;;;;;;;7.80;5.63;;;;;;;;;;5055004;28;20261;-65
2021/12/16 08:06:25;;;;;;;7.35;5.50;;;;;;;;;;5054980;28;20178;-65
2021/12/16 08:08:52;;;;;;;6.20;5.10;;;;;;;;;;5054943;28;20162;-65
2021/12/16 08:11:18;;;;;;;9.00;6.88;;;;;;;;;;5054935;28;20193;-65
2021/12/16 08:13:43;;;;;;;9.38;7.63;;;;;;;;;;5054820;28;20647;-66
2021/12/16 08:16:08;;;;;;;5.40;4.78;;;;;;;;;;5054825;28;20667;-66
2021/12/16 08:18:34;;;;;;;7.15;6.00;;;;;;;;;;5054758;28;20230;-66
2021/12/16 08:21:00;;;;;;;8.90;6.20;;;;;;;;;;5054641;28;20250;-66
2021/12/16 08:23:25;;;;;;;11.73;9.57;;;;;;;;;;5054913;28;20181;-66
2021/12/16 08:25:50;;;;;;;9.38;7.45;;;;;;;;;;5054866;28;20173;-65
2021/12/16 08:28:16;;;;;;;6.38;5.55;;;;;;;;;;5054806;28;20288;-65
2021/12/16 08:30:45;;;;;;;9.32;6.75;;;;;;;;;;5054743;28;20178;-66
2021/12/16 08:33:12;;;;;;;7.55;5.88;;;;;;;;;;5054272;28;20218;-66
2021/12/16 08:35:42;;;;;;;9.90;7.75;;;;;;;;;;5054373;28;20659;-65
2021/12/16 08:38:09;;;;;;;12.50;9.35;;;;;;;;;;5053426;28;20180;-65
2021/12/16 08:40:35;;;;;;;14.32;10.32;;;;;;;;;;5054293;28;20249;-66
2021/12/16 08:43:00;;;;;;;13.43;10.77;;;;;;;;;;5053846;28;20245;-65
2021/12/16 08:45:29;;;;;;;8.60;7.05;;;;;;;;;;5053907;28;20197;-65
2021/12/16 08:47:55;;;;;;;7.85;6.30;;;;;;;;;;5054387;28;20198;-66
2021/12/16 08:50:22;;;;;;;7.05;6.00;;;;;;;;;;5054216;28;20197;-65
2021/12/16 08:52:47;;;;;;;6.97;6.07;;;;;;;;;;5054131;28;20178;-65
2021/12/16 08:55:13;;;;;;;6.22;5.05;;;;;;;;;;5054288;28;20177;-66
2021/12/16 08:57:38;;;;;;;5.97;4.45;;;;;;;;;;5054142;28;20177;-66
2021/12/16 09:00:06;;;;;;;7.05;6.35;;;;;;;;;;5054301;28;20261;-66
2021/12/16 09:02:32;;;;;;;5.30;4.80;;;;;;;;;;5054093;28;20205;-66
2021/12/16 09:04:57;;;;;;;8.18;6.25;;;;;;;;;;5054154;28;20173;-66
2021/12/16 09:07:22;;;;;;;5.97;5.28;;;;;;;;;;5054004;28;20170;-65
2021/12/16 09:09:48;;;;;;;6.75;5.60;;;;;;;;;;5053895;28;20166;-65
2021/12/16 09:12:36;;;;;;;6.38;5.30;;;;;;;;;;5053835;28;20173;-65
2021/12/16 09:15:01;;;;;;;12.02;9.65;;;;;;;;;;5053473;28;20206;-65
2021/12/16 09:17:26;;;;;;;7.22;5.25;;;;;;;;;;5053676;28;20227;-65
2021/12/16 09:19:53;;;;;;;8.40;5.45;;;;;;;;;;5054198;28;20260;-65
2021/12/16 09:22:19;;;;;;;5.28;4.68;;;;;;;;;;5054063;28;20557;-66
2021/12/16 09:24:45;;;;;;;6.85;5.53;;;;;;;;;;5053831;28;20184;-66
2021/12/16 09:27:10;;;;;;;10.65;7.75;;;;;;;;;;5053525;28;20174;-66
2021/12/16 09:29:35;;;;;;;10.95;8.30;;;;;;;;;;5053456;28;20174;-65
2021/12/16 09:32:03;;;;;;;12.68;9.75;;;;;;;;;;5053415;28;20178;-66
2021/12/16 09:34:29;;;;;;;16.83;10.85;;;;;;;;;;5053296;28;20776;-66
2021/12/16 09:36:54;;;;;;;13.50;9.55;;;;;;;;;;5053282;28;20174;-65
2021/12/16 09:39:24;;;;;;;17.65;9.30;;;;;;;;;;5053243;28;20182;-65
2021/12/16 09:41:51;;;;;;;13.00;8.60;;;;;;;;;;5053154;28;20193;-65
2021/12/16 09:44:17;;;;;;;12.35;7.35;;;;;;;;;;5053213;28;20249;-67
2021/12/16 09:46:47;;;;;;;12.60;8.93;;;;;;;;;;5053103;28;20253;-66
2021/12/16 09:49:13;;;;;;;12.23;9.07;;;;;;;;;;5053332;28;20169;-66
2021/12/16 09:51:41;;;;;;;10.73;7.80;;;;;;;;;;5053012;28;20695;-66
2021/12/16 09:54:08;;;;;;;6.95;6.20;;;;;;;;;;5052740;28;20184;-65
2021/12/16 09:56:34;;;;;;;14.13;10.85;;;;;;;;;;5052724;28;20178;-65
2021/12/16 09:59:01;;;;;;;13.02;9.23;;;;;;;;;;5052881;28;20204;-65
2021/12/16 10:01:27;;;;;;;12.43;7.70;;;;;;;;;;5052727;28;20193;-66
2021/12/16 10:03:54;;;;;;;9.18;6.72;;;;;;;;;;5052708;28;20174;-66
2021/12/16 10:06:19;;;;;;;8.68;7.63;;;;;;;;;;5052597;28;20673;-65
2021/12/16 10:08:46;;;;;;;10.90;7.10;;;;;;;;;;5052955;28;20169;-66
2021/12/16 10:11:11;;;;;;;6.95;5.50;;;;;;;;;;5052674;28;20197;-65
2021/12/16 10:14:00;;;;;;;7.50;5.10;;;;;;;;;;5052623;28;20583;-65
2021/12/16 10:19:11;;;;;;;11.02;7.90;;;;;;;;;;5061295;28;20216;-66
2021/12/16 10:21:38;;;;;;;8.98;7.32;;;;;;;;;;5052309;28;20734;-65
2021/12/16 10:24:04;;;;;;;8.68;6.55;;;;;;;;;;5052283;28;20636;-66
2021/12/16 10:26:29;;;;;;;6.65;5.72;;;;;;;;;;5052332;28;20177;-65
2021/12/16 10:28:57;;;;;;;7.47;6.47;;;;;;;;;;5052333;28;20662;-65
2021/12/16 10:31:27;;;;;;;23.08;14.68;;;;;;;;;;5052354;28;20184;-65
2021/12/16 10:33:55;;;;;;;19.63;13.60;;;;;;;;;;5052201;28;20189;-65
2021/12/16 10:36:26;;;;;;;11.55;8.65;;;;;;;;;;5052216;28;20268;-65
2021/12/16 10:38:54;;;;;;;12.18;7.28;;;;;;;;;;5052242;28;20604;-65
2021/12/16 10:41:31;;;;;;;7.75;5.30;;;;;;;;;;5052392;28;20205;-66
2021/12/16 10:44:06;;;;;;;8.25;6.15;;;;;;;;;;5052420;28;20192;-65
2021/12/16 10:46:34;;;;;;;9.45;7.80;;;;;;;;;;5052818;28;20570;-65
2021/12/16 10:49:06;;;;;;;7.15;6.25;;;;;;;;;;5052296;28;20178;-65
2021/12/16 10:51:32;;;;;;;8.38;6.13;;;;;;;;;;5052365;28;20154;-65
2021/12/16 10:54:07;;;;;;;7.55;5.72;;;;;;;;;;5050726;28;20252;-65
2021/12/16 10:56:35;;;;;;;8.43;6.35;;;;;;;;;;5052211;28;20246;-64
2021/12/16 10:59:06;;;;;;;8.52;7.00;;;;;;;;;;5051920;28;20239;-65
2021/12/16 11:01:32;;;;;;;7.72;6.50;;;;;;;;;;5052431;28;20595;-64
2021/12/16 11:03:57;;;;;;;8.57;7.20;;;;;;;;;;5051840;28;20312;-65
2021/12/16 11:06:27;;;;;;;8.80;6.75;;;;;;;;;;5051174;28;20177;-65
2021/12/16 11:08:52;;;;;;;9.93;6.88;;;;;;;;;;5051943;28;20170;-65
2021/12/16 11:11:26;;;;;;;10.73;8.02;;;;;;;;;;5051785;28;20666;-65
2021/12/16 11:14:00;;;;;;;9.27;8.27;;;;;;;;;;5051757;28;20162;-65
2021/12/16 11:16:29;;;;;;;9.48;8.48;;;;;;;;;;5052054;28;20157;-65
2021/12/16 11:18:55;;;;;;;14.07;10.70;;;;;;;;;;5051729;28;20662;-65
2021/12/16 11:21:20;;;;;;;8.40;6.82;;;;;;;;;;5051673;28;20190;-65
2021/12/16 11:23:45;;;;;;;7.07;6.38;;;;;;;;;;5051696;28;20671;-65
2021/12/16 11:26:12;;;;;;;8.00;6.85;;;;;;;;;;5051679;28;20185;-65
2021/12/16 11:28:48;;;;;;;9.38;6.68;;;;;;;;;;5051649;28;20170;-65
2021/12/16 11:31:23;;;;;;;9.10;7.07;;;;;;;;;;5051859;28;20170;-65
2021/12/16 11:33:51;;;;;;;9.45;7.35;;;;;;;;;;5051935;28;20258;-66
2021/12/16 11:36:17;;;;;;;10.23;7.68;;;;;;;;;;5051411;28;20200;-65
2021/12/16 11:38:43;;;;;;;13.90;8.57;;;;;;;;;;5051562;28;20170;-65
2021/12/16 11:41:08;;;;;;;13.50;8.45;;;;;;;;;;5051491;28;20197;-66
2021/12/16 11:43:35;;;;;;;15.98;9.55;;;;;;;;;;5051742;28;20170;-65
2021/12/16 11:46:01;;;;;;;9.65;7.70;;;;;;;;;;5051708;28;20564;-65
2021/12/16 11:48:32;;;;;;;14.35;10.80;;;;;;;;;;5051387;28;20170;-65
2021/12/16 11:51:02;;;;;;;11.90;8.52;;;;;;;;;;5051631;28;20702;-65
2021/12/16 11:53:35;;;;;;;11.25;8.48;;;;;;;;;;5051675;28;20194;-65
2021/12/16 11:56:00;;;;;;;12.40;7.75;;;;;;;;;;5051371;28;20271;-65
2021/12/16 11:58:28;;;;;;;12.48;9.02;;;;;;;;;;5051552;28;20651;-65
2021/12/16 12:00:54;;;;;;;6.97;6.30;;;;;;;;;;5051258;28;20197;-66
2021/12/16 12:03:19;;;;;;;7.63;5.70;;;;;;;;;;5051305;28;20687;-66
2021/12/16 12:05:46;;;;;;;8.43;6.45;;;;;;;;;;5051196;28;20239;-66
2021/12/16 12:08:14;;;;;;;9.40;6.68;;;;;;;;;;5051528;28;20194;-66
2021/12/16 12:10:50;;;;;;;8.60;6.80;;;;;;;;;;5051722;28;20177;-67
2021/12/16 12:13:21;;;;;;;11.30;8.10;;;;;;;;;;5051491;28;20170;-66
2021/12/16 12:16:13;;;;;;;10.75;7.80;;;;;;;;;;5051273;28;20188;-66
2021/12/16 12:18:44;;;;;;;8.18;6.05;;;;;;;;;;5052937;28;20209;-66
2021/12/16 12:21:21;;;;;;;8.95;6.35;;;;;;;;;;5054701;28;20200;-67
2021/12/16 12:23:49;;;;;;;8.18;6.65;;;;;;;;;;5054992;28;20307;-66
2021/12/16 12:26:16;;;;;;;7.47;6.53;;;;;;;;;;5054832;28;20158;-67
2021/12/16 12:28:50;;;;;;;8.45;6.60;;;;;;;;;;5054871;28;20189;-66
2021/12/16 12:31:17;;;;;;;8.57;7.70;;;;;;;;;;5054697;28;20166;-66
2021/12/16 12:33:42;;;;;;;9.20;6.05;;;;;;;;;;5054665;28;20193;-67
2021/12/16 12:36:08;;;;;;;6.28;5.53;;;;;;;;;;5054499;28;20170;-65
2021/12/16 12:38:34;;;;;;;6.03;5.38;;;;;;;;;;5054468;28;20193;-65
2021/12/16 12:41:00;;;;;;;5.07;4.57;;;;;;;;;;5054286;28;20216;-65
2021/12/16 12:43:25;;;;;;;6.40;5.53;;;;;;;;;;5054349;28;20166;-66
2021/12/16 12:45:50;;;;;;;6.88;5.25;;;;;;;;;;5054278;28;20170;-65
2021/12/16 12:48:17;;;;;;;15.82;11.18;;;;;;;;;;5054527;28;20162;-65
2021/12/16 12:50:44;;;;;;;10.30;8.00;;;;;;;;;;5054453;28;20257;-65
2021/12/16 12:53:35;;;;;;;19.10;13.60;;;;;;;;;;5054092;28;20170;-65
2021/12/16 12:56:10;;;;;;;12.70;9.25;;;;;;;;;;5053847;28;20190;-65
2021/12/16 12:58:46;;;;;;;8.23;6.82;;;;;;;;;;5052907;28;20704;-66
2021/12/16 13:01:11;;;;;;;15.20;10.05;;;;;;;;;;5054023;28;20232;-65
2021/12/16 13:03:38;;;;;;;10.43;8.27;;;;;;;;;;5053976;28;20169;-65
2021/12/16 13:06:05;;;;;;;5.43;4.90;;;;;;;;;;5053865;28;20162;-66
2021/12/16 13:08:38;;;;;;;7.07;4.97;;;;;;;;;;5053775;28;20177;-66
2021/12/16 13:11:06;;;;;;;8.30;6.72;;;;;;;;;;5054342;28;20307;-65
2021/12/16 13:13:36;;;;;;;6.88;6.10;;;;;;;;;;5053807;28;20204;-65
2021/12/16 13:16:56;;;;;;;9.32;8.00;;;;;;;;;;5053675;28;20194;-65
2021/12/16 13:27:20;;;;;;;8.23;6.55;;;;;;;;;;5053598;28;20150;-65
2021/12/16 13:30:04;;;;;;;6.28;5.53;;;;;;;;;;5053227;28;20150;-65
2021/12/16 13:32:41;;;;;;;7.22;6.50;;;;;;;;;;5053731;28;20185;-65
2021/12/16 13:37:45;;;;;;;12.18;8.55;;;;;;;;;;5054065;28;20560;-65
2021/12/16 13:40:14;;;;;;;17.90;11.40;;;;;;;;;;5053510;28;20169;-65
2021/12/16 13:42:53;;;;;;;9.43;6.68;;;;;;;;;;5053305;28;20219;-65
2021/12/16 13:45:33;;;;;;;10.52;8.25;;;;;;;;;;5053425;28;20189;-65
2021/12/16 14:06:41;;;;;;;23.40;11.30;;;;;;;;;;5053042;28;20245;-65
2021/12/16 14:09:17;;;;;;;14.18;8.95;;;;;;;;;;5052811;28;20199;-66
2021/12/16 14:17:45;;;;;;;13.43;9.13;;;;;;;;;;5053073;28;20681;-65
2021/12/16 14:23:09;;;;;;;10.95;6.90;;;;;;;;;;5052469;28;20200;-65
2021/12/16 14:46:06;;;;;;;13.50;9.40;;;;;;;;;;5052564;28;20150;-65
2021/12/16 14:48:35;;;;;;;10.45;7.85;;;;;;;;;;5052065;28;20607;-65
2021/12/16 14:51:03;;;;;;;7.35;6.57;;;;;;;;;;5052284;28;20198;-66
2021/12/16 14:53:48;;;;;;;8.40;6.38;;;;;;;;;;5052313;28;20247;-65
2021/12/16 14:56:20;;;;;;;23.90;11.70;;;;;;;;;;5051899;28;20182;-66
2021/12/16 14:58:47;;;;;;;54.42;24.90;;;;;;;;;;5051799;28;20174;-64
2021/12/16 15:01:19;;;;;;;34.40;20.02;;;;;;;;;;5051795;28;20276;-64
2021/12/16 15:03:45;;;;;;;16.13;11.35;;;;;;;;;;5052626;28;20252;-66
2021/12/16 15:06:36;;;;;;;11.25;7.30;;;;;;;;;;5051767;28;20551;-66
2021/12/16 15:11:42;;;;;;;6.80;5.65;;;;;;;;;;5052434;28;20564;-65
2021/12/16 15:14:21;;;;;;;7.07;6.38;;;;;;;;;;5051933;28;20730;-65
2021/12/16 15:38:46;;;;;;;7.05;6.00;;;;;;;;;;5051538;28;20166;-66
2021/12/16 15:43:37;;;;;;;16.15;9.02;;;;;;;;;;5051473;28;20157;-65
2021/12/16 15:46:05;;;;;;;9.05;6.80;;;;;;;;;;5051697;28;20300;-65
2021/12/16 15:48:30;;;;;;;8.35;6.85;;;;;;;;;;5051712;28;20176;-65
2021/12/16 15:50:58;;;;;;;7.22;5.70;;;;;;;;;;5051433;28;20562;-65
2021/12/16 15:53:23;;;;;;;7.63;6.25;;;;;;;;;;5053191;28;20170;-65
2021/12/16 15:56:05;;;;;;;8.68;6.18;;;;;;;;;;5055199;28;20536;-65
2021/12/16 15:58:32;;;;;;;9.95;7.13;;;;;;;;;;5055703;28;20154;-65
2021/12/16 16:01:03;;;;;;;7.28;6.10;;;;;;;;;;5055259;28;20205;-65
2021/12/16 16:03:29;;;;;;;6.47;5.35;;;;;;;;;;5055110;28;20178;-65
2021/12/16 16:05:55;;;;;;;8.30;7.10;;;;;;;;;;5055077;28;20173;-65
2021/12/16 16:08:21;;;;;;;11.85;8.68;;;;;;;;;;5054961;28;20669;-66
2021/12/16 16:10:49;;;;;;;22.50;14.43;;;;;;;;;;5054894;28;20681;-65
2021/12/16 16:13:17;;;;;;;16.42;9.40;;;;;;;;;;5054903;28;20170;-66
2021/12/16 16:15:43;;;;;;;6.53;5.63;;;;;;;;;;5054874;28;20190;-65
2021/12/16 16:20:56;;;;;;;5.47;4.97;;;;;;;;;;5055070;28;20158;-66
2021/12/16 16:23:21;;;;;;;7.00;6.20;;;;;;;;;;5054764;28;20559;-66
2021/12/16 16:25:47;;;;;;;6.80;5.55;;;;;;;;;;5054742;28;20173;-66
2021/12/16 16:28:14;;;;;;;6.07;5.32;;;;;;;;;;5054922;28;20182;-65
2021/12/16 16:30:40;;;;;;;7.78;5.00;;;;;;;;;;5054839;28;20253;-65
2021/12/16 16:33:08;;;;;;;5.40;4.72;;;;;;;;;;5054419;28;20647;-66
2021/12/16 16:35:36;;;;;;;7.75;5.88;;;;;;;;;;5054565;28;20162;-66
2021/12/16 16:38:12;;;;;;;6.75;5.53;;;;;;;;;;5054490;28;20169;-66
2021/12/16 16:40:39;;;;;;;7.47;5.07;;;;;;;;;;5054375;28;20663;-66
2021/12/16 16:43:15;;;;;;;8.60;6.70;;;;;;;;;;5054253;28;20194;-66
2021/12/16 16:45:43;;;;;;;5.78;4.72;;;;;;;;;;5054626;28;20165;-65
2021/12/16 16:48:26;;;;;;;6.65;5.20;;;;;;;;;;5054249;28;20174;-65
2021/12/16 16:51:01;;;;;;;7.85;5.28;;;;;;;;;;5054584;28;20150;-66
2021/12/16 16:53:27;;;;;;;8.93;6.07;;;;;;;;;;5054647;28;20157;-65
2021/12/16 16:55:53;;;;;;;11.73;7.70;;;;;;;;;;5054075;28;20173;-66
2021/12/16 16:58:18;;;;;;;6.20;4.82;;;;;;;;;;5054097;28;20169;-65
2021/12/16 17:00:46;;;;;;;7.38;5.38;;;;;;;;;;5054011;28;20169;-65
2021/12/16 17:03:12;;;;;;;9.10;5.93;;;;;;;;;;5053859;28;20197;-66
2021/12/16 17:05:40;;;;;;;6.22;4.90;;;;;;;;;;5052919;28;20166;-65
2021/12/16 17:08:12;;;;;;;7.85;5.80;;;;;;;;;;5053843;28;20173;-66
2021/12/16 17:10:47;;;;;;;10.18;7.32;;;;;;;;;;5053791;28;20208;-65
2021/12/16 17:13:20;;;;;;;10.10;5.22;;;;;;;;;;5054074;28;20671;-66
2021/12/16 17:18:34;;;;;;;7.93;5.78;;;;;;;;;;5062703;28;20190;-66
2021/12/16 17:21:10;;;;;;;18.15;11.80;;;;;;;;;;5053848;28;20191;-65
2021/12/16 17:23:35;;;;;;;9.02;7.78;;;;;;;;;;5053606;28;20162;-65
2021/12/16 17:26:01;;;;;;;11.57;8.00;;;;;;;;;;5053577;28;20170;-65
2021/12/16 17:28:29;;;;;;;10.30;9.13;;;;;;;;;;5053548;28;20177;-66
2021/12/16 17:30:54;;;;;;;7.25;6.47;;;;;;;;;;5053941;28;20204;-66
2021/12/16 17:33:29;;;;;;;6.43;5.43;;;;;;;;;;5053522;28;20639;-66
2021/12/16 17:35:55;;;;;;;7.25;5.80;;;;;;;;;;5052054;28;20166;-66
2021/12/16 17:38:25;;;;;;;5.97;4.40;;;;;;;;;;5053909;28;20251;-66
2021/12/16 17:40:52;;;;;;;7.93;6.57;;;;;;;;;;5053221;28;20185;-67
2021/12/16 17:43:20;;;;;;;7.53;5.88;;;;;;;;;;5053249;28;20174;-66
2021/12/16 17:45:48;;;;;;;11.85;8.75;;;;;;;;;;5053166;28;20166;-66
2021/12/16 17:48:15;;;;;;;6.15;4.63;;;;;;;;;;5053700;28;20173;-66
2021/12/16 17:50:42;;;;;;;8.65;6.97;;;;;;;;;;5053082;28;20169;-65
2021/12/16 17:53:08;;;;;;;8.85;6.15;;;;;;;;;;5053296;28;20653;-66
2021/12/16 17:55:36;;;;;;;9.73;7.20;;;;;;;;;;5052827;28;20260;-65
2021/12/16 17:58:03;;;;;;;14.25;8.85;;;;;;;;;;5052949;28;20162;-66
2021/12/16 18:00:28;;;;;;;16.05;11.15;;;;;;;;;;5052821;28;20184;-66
2021/12/16 18:02:54;;;;;;;12.90;9.02;;;;;;;;;;5052748;28;20272;-65
2021/12/16 18:05:20;;;;;;;20.08;13.45;;;;;;;;;;5052755;28;20253;-65
2021/12/16 18:07:46;;;;;;;18.73;13.43;;;;;;;;;;5052743;28;20652;-65
2021/12/16 18:10:13;;;;;;;12.05;9.77;;;;;;;;;;5052975;28;20166;-65
2021/12/16 18:12:39;;;;;;;14.65;9.88;;;;;;;;;;5052986;28;20539;-66
2021/12/16 18:15:08;;;;;;;11.13;7.07;;;;;;;;;;5052554;28;20185;-66
2021/12/16 18:17:36;;;;;;;12.30;8.13;;;;;;;;;;5052513;28;20165;-65
2021/12/16 18:20:24;;;;;;;7.38;5.85;;;;;;;;;;5052870;28;20173;-66
2021/12/16 18:22:52;;;;;;;8.90;5.85;;;;;;;;;;5051955;28;20331;-65
2021/12/16 18:25:20;;;;;;;8.02;5.68;;;;;;;;;;5052428;28;20728;-66
2021/12/16 18:27:48;;;;;;;7.95;5.57;;;;;;;;;;5052449;28;20181;-66
2021/12/16 18:30:16;;;;;;;25.30;13.30;;;;;;;;;;5052652;28;20174;-67
2021/12/16 18:32:43;;;;;;;71.82;24.25;;;;;;;;;;5052239;28;20174;-64
2021/12/16 18:35:09;;;;;;;71.60;27.92;;;;;;;;;;5052374;28;20181;-65
2021/12/16 18:37:40;;;;;;;37.47;17.40;;;;;;;;;;5052276;28;20299;-65
2021/12/16 18:40:07;;;;;;;25.20;14.88;;;;;;;;;;5052250;28;20154;-65
2021/12/16 18:42:33;;;;;;;5.57;4.93;;;;;;;;;;5052110;28;20186;-66
2021/12/16 18:45:02;;;;;;;6.45;5.40;;;;;;;;;;5052150;28;20166;-66